Time;durP1;ratioP1;P1;durP2;ratioP2;P2;SDS_P1;SDS_P2;PMS_P1;PMS_P2;Temp;Humidity;BMP_temperature;BMP_pressure;BME280_temperature;BME280_humidity;BME280_pressure;Samples;Min_cycle;Max_cycle;Signal;HPM_P1;HPM_P2
2022/05/16 00:01:05;;;;;;;11.48;4.47;;;14.90;99.90;;;;;;5032620;28;20038;-68
2022/05/16 00:03:31;;;;;;;11.02;4.28;;;14.90;99.90;;;;;;5032479;28;20048;-68
2022/05/16 00:05:57;;;;;;;12.18;3.95;;;14.90;99.90;;;;;;5015996;28;20489;-68
2022/05/16 00:08:23;;;;;;;10.27;4.22;;;14.90;99.90;;;;;;5032745;28;20045;-68
2022/05/16 00:10:49;;;;;;;12.88;4.07;;;14.80;99.90;;;;;;5016011;28;20037;-68
2022/05/16 00:13:14;;;;;;;10.52;3.88;;;14.80;99.90;;;;;;5032371;28;20042;-68
2022/05/16 00:15:40;;;;;;;13.35;4.35;;;14.80;99.90;;;;;;5032594;28;20041;-68
2022/05/16 00:18:06;;;;;;;9.02;3.90;;;14.80;99.90;;;;;;5032326;28;20041;-68
2022/05/16 00:20:32;;;;;;;12.27;4.47;;;14.70;99.90;;;;;;5032290;28;20037;-68
2022/05/16 00:22:58;;;;;;;12.10;4.53;;;14.70;99.90;;;;;;5032457;28;20102;-68
2022/05/16 00:25:24;;;;;;;11.15;4.15;;;14.70;99.90;;;;;;5032064;28;20482;-67
2022/05/16 00:27:50;;;;;;;13.25;4.07;;;14.70;99.90;;;;;;5032199;28;20098;-68
2022/05/16 00:30:18;;;;;;;9.77;4.15;;;14.60;99.90;;;;;;5032099;28;20038;-68
2022/05/16 00:32:45;;;;;;;10.85;4.40;;;14.60;99.90;;;;;;5015514;28;20508;-68
2022/05/16 00:35:12;;;;;;;9.80;3.90;;;14.60;99.90;;;;;;5032130;28;20076;-68
2022/05/16 00:37:38;;;;;;;10.60;3.72;;;14.60;99.90;;;;;;5032096;28;20038;-68
2022/05/16 00:40:05;;;;;;;10.00;3.70;;;14.60;99.90;;;;;;5032286;28;20044;-68
2022/05/16 00:42:31;;;;;;;10.25;4.13;;;14.60;99.90;;;;;;5031891;28;20046;-68
2022/05/16 00:44:56;;;;;;;11.30;3.85;;;14.50;99.90;;;;;;5032031;28;20080;-68
2022/05/16 00:47:22;;;;;;;12.55;4.35;;;14.50;99.90;;;;;;5032228;28;20049;-68
2022/05/16 00:49:51;;;;;;;9.10;3.70;;;14.50;99.90;;;;;;5033157;28;20397;-68
2022/05/16 00:52:30;;;;;;;11.05;3.75;;;14.50;99.90;;;;;;5031827;28;20046;-67
2022/05/16 00:55:03;;;;;;;9.73;4.07;;;14.50;99.90;;;;;;5031889;28;20049;-67
2022/05/16 00:57:35;;;;;;;10.57;3.75;;;14.50;99.90;;;;;;5031851;28;20408;-67
2022/05/16 01:00:21;;;;;;;10.57;3.55;;;14.50;99.90;;;;;;5034916;28;20052;-68
2022/05/16 01:05:43;;;;;;;7.43;2.80;;;14.60;99.90;;;;;;5035965;28;20409;-68
2022/05/16 01:08:12;;;;;;;9.15;3.78;;;14.60;99.90;;;;;;5035813;28;20049;-68
2022/05/16 01:10:39;;;;;;;8.35;3.38;;;14.60;99.90;;;;;;5035805;28;20493;-68
2022/05/16 01:13:05;;;;;;;8.65;3.20;;;14.70;99.90;;;;;;5035927;28;20401;-68
2022/05/16 01:15:46;;;;;;;8.48;3.00;;;14.70;99.90;;;;;;5035680;28;20052;-68
2022/05/16 01:18:16;;;;;;;11.23;3.88;;;14.70;99.90;;;;;;5035926;28;20045;-68
2022/05/16 01:20:52;;;;;;;9.35;3.78;;;14.70;99.90;;;;;;5035923;28;20042;-68
2022/05/16 01:23:22;;;;;;;10.13;3.50;;;14.70;99.90;;;;;;5035773;28;20045;-67
2022/05/16 01:25:49;;;;;;;6.20;2.83;;;14.70;99.90;;;;;;5035501;28;20042;-68
2022/05/16 01:28:19;;;;;;;11.07;3.47;;;14.70;99.90;;;;;;5035519;28;20116;-68
2022/05/16 01:30:46;;;;;;;10.07;3.47;;;14.70;99.90;;;;;;5018883;28;20382;-68
2022/05/16 01:33:16;;;;;;;7.70;2.90;;;14.70;99.90;;;;;;5036842;28;20076;-68
2022/05/16 01:35:42;;;;;;;9.00;3.13;;;14.70;99.90;;;;;;5018832;28;20517;-68
2022/05/16 01:38:21;;;;;;;11.02;3.38;;;14.70;99.90;;;;;;5035626;28;20056;-67
2022/05/16 01:41:09;;;;;;;9.00;2.80;;;14.70;99.90;;;;;;5035577;28;20056;-67
2022/05/16 01:43:45;;;;;;;8.93;3.40;;;14.70;99.90;;;;;;5035255;28;20045;-68
2022/05/16 01:46:13;;;;;;;7.90;3.28;;;14.70;99.90;;;;;;5035413;28;20041;-68
2022/05/16 01:48:39;;;;;;;9.15;2.88;;;14.70;99.90;;;;;;5035106;28;20119;-68
2022/05/16 01:51:09;;;;;;;8.23;3.05;;;14.70;99.90;;;;;;5035068;28;20065;-68
2022/05/16 01:53:35;;;;;;;7.88;2.95;;;14.70;99.90;;;;;;5034976;28;20083;-68
2022/05/16 01:56:01;;;;;;;11.13;3.40;;;14.70;99.90;;;;;;5018379;28;20045;-68
2022/05/16 01:58:26;;;;;;;7.60;3.38;;;14.70;99.90;;;;;;5034958;28;20088;-68
2022/05/16 02:00:52;;;;;;;6.28;2.70;;;14.70;99.90;;;;;;5034925;28;20056;-68
2022/05/16 02:03:18;;;;;;;8.48;2.80;;;14.70;99.90;;;;;;5034779;28;20049;-68
2022/05/16 02:05:45;;;;;;;8.82;3.40;;;14.70;99.90;;;;;;5034716;28;20041;-68
2022/05/16 02:08:12;;;;;;;7.53;2.70;;;14.60;99.90;;;;;;5034824;28;20037;-68
2022/05/16 02:10:37;;;;;;;9.27;3.42;;;14.60;99.90;;;;;;5034079;28;20041;-68
2022/05/16 02:13:04;;;;;;;13.82;3.40;;;14.60;99.90;;;;;;5034830;28;20044;-68
2022/05/16 02:15:31;;;;;;;8.13;3.20;;;14.60;99.90;;;;;;5034628;28;20493;-68
2022/05/16 02:17:58;;;;;;;7.80;2.50;;;14.50;99.90;;;;;;5034571;28;20124;-68
2022/05/16 02:20:24;;;;;;;8.68;2.88;;;14.50;99.90;;;;;;5034796;28;20041;-68
2022/05/16 02:25:37;;;;;;;11.02;3.30;;;14.50;99.90;;;;;;5034366;28;20041;-68
2022/05/16 02:28:04;;;;;;;9.30;3.08;;;14.40;99.90;;;;;;5034437;28;20517;-68
2022/05/16 02:30:29;;;;;;;9.63;2.72;;;14.40;99.90;;;;;;5034626;28;20120;-68
2022/05/16 02:32:55;;;;;;;10.35;3.78;;;14.40;99.90;;;;;;5018049;28;20499;-68
2022/05/16 02:35:21;;;;;;;9.75;3.67;;;14.40;99.90;;;;;;5034275;28;20045;-68
2022/05/16 02:37:48;;;;;;;7.70;3.20;;;14.40;99.90;;;;;;5034488;28;20048;-68
2022/05/16 02:40:13;;;;;;;5.72;2.90;;;14.40;99.90;;;;;;5034165;28;20052;-68
2022/05/16 02:42:39;;;;;;;7.40;2.90;;;14.40;99.90;;;;;;5034163;28;20045;-68
2022/05/16 02:45:05;;;;;;;8.27;3.20;;;14.30;99.90;;;;;;5034145;28;20124;-68
2022/05/16 02:47:31;;;;;;;8.88;3.33;;;14.40;99.90;;;;;;5033998;28;20041;-68
2022/05/16 02:49:57;;;;;;;8.98;2.88;;;14.30;99.90;;;;;;5034001;28;20084;-68
2022/05/16 02:52:23;;;;;;;9.02;3.10;;;14.30;99.90;;;;;;5033853;28;20072;-68
2022/05/16 02:54:51;;;;;;;7.50;3.22;;;14.30;99.90;;;;;;5034159;28;20037;-68
2022/05/16 02:57:16;;;;;;;7.93;2.90;;;14.30;99.90;;;;;;5033865;28;20081;-68
2022/05/16 02:59:42;;;;;;;9.05;2.70;;;14.20;99.90;;;;;;5034064;28;20073;-68
2022/05/16 03:02:10;;;;;;;7.65;3.10;;;14.20;99.90;;;;;;5017215;28;20413;-68
2022/05/16 03:04:35;;;;;;;10.13;3.20;;;14.20;99.90;;;;;;5033662;28;20057;-68
2022/05/16 03:07:01;;;;;;;7.88;3.25;;;14.20;99.90;;;;;;5033883;28;20034;-68
2022/05/16 03:09:28;;;;;;;9.90;3.55;;;14.20;99.90;;;;;;5033605;28;20481;-68
2022/05/16 03:11:54;;;;;;;7.68;3.13;;;14.10;99.90;;;;;;5033783;28;20037;-68
2022/05/16 03:14:20;;;;;;;6.78;2.78;;;14.20;99.90;;;;;;5017013;28;20129;-68
2022/05/16 03:16:46;;;;;;;9.95;3.10;;;14.20;99.90;;;;;;5033444;28;20076;-68
2022/05/16 03:19:13;;;;;;;6.65;2.92;;;14.20;99.90;;;;;;5033422;28;20405;-68
2022/05/16 03:21:38;;;;;;;10.55;3.03;;;14.10;99.90;;;;;;5033530;28;20401;-68
2022/05/16 03:24:05;;;;;;;8.20;2.97;;;14.10;99.90;;;;;;5033248;28;20516;-68
2022/05/16 03:26:31;;;;;;;9.55;3.00;;;14.20;99.90;;;;;;5033303;28;20053;-68
2022/05/16 03:28:57;;;;;;;7.40;3.08;;;14.10;99.90;;;;;;5033236;28;20042;-68
2022/05/16 03:31:23;;;;;;;12.38;3.10;;;14.10;99.90;;;;;;5016650;28;20063;-68
2022/05/16 03:33:48;;;;;;;7.30;3.03;;;14.10;99.90;;;;;;5033119;28;20099;-68
2022/05/16 03:36:14;;;;;;;10.35;3.38;;;14.10;99.90;;;;;;5016586;28;20029;-68
2022/05/16 03:41:24;;;;;;;7.30;3.05;;;14.00;99.90;;;;;;5033064;28;20045;-67
2022/05/16 03:43:50;;;;;;;9.55;3.03;;;14.00;99.90;;;;;;5032889;28;20383;-68
2022/05/16 03:46:17;;;;;;;10.23;3.00;;;14.00;99.90;;;;;;5032915;28;20045;-68
2022/05/16 03:48:42;;;;;;;10.43;3.20;;;14.00;99.90;;;;;;5016358;28;20073;-68
2022/05/16 03:51:10;;;;;;;7.20;3.00;;;13.90;99.90;;;;;;5033093;28;20065;-68
2022/05/16 03:53:42;;;;;;;7.32;3.03;;;13.90;99.90;;;;;;5032939;28;20037;-67
2022/05/16 03:56:08;;;;;;;9.63;2.93;;;13.90;99.90;;;;;;5033019;28;20111;-68
2022/05/16 03:58:33;;;;;;;7.65;2.63;;;13.80;99.90;;;;;;5032642;28;20497;-67
2022/05/16 04:00:59;;;;;;;10.15;3.00;;;13.80;99.90;;;;;;5032636;28;20124;-68
2022/05/16 04:03:24;;;;;;;7.35;3.00;;;13.80;99.90;;;;;;5032483;28;20080;-68
2022/05/16 04:05:50;;;;;;;9.93;2.78;;;13.80;99.90;;;;;;5032458;28;20072;-68
2022/05/16 04:08:16;;;;;;;8.40;2.70;;;13.80;99.90;;;;;;5032798;28;20037;-68
2022/05/16 04:10:42;;;;;;;8.60;2.85;;;13.80;99.90;;;;;;5032465;28;20549;-68
2022/05/16 04:13:07;;;;;;;9.00;2.53;;;13.80;99.90;;;;;;5032327;28;20100;-67
2022/05/16 04:15:33;;;;;;;8.02;2.50;;;13.80;99.90;;;;;;5032404;28;20068;-67
2022/05/16 04:17:58;;;;;;;8.95;2.65;;;13.80;99.90;;;;;;5032385;28;20049;-67
2022/05/16 04:20:24;;;;;;;11.13;2.90;;;13.80;99.90;;;;;;5032299;28;20110;-67
2022/05/16 04:22:50;;;;;;;7.28;2.20;;;13.80;99.90;;;;;;5032243;28;20049;-67
2022/05/16 04:25:18;;;;;;;7.10;2.60;;;13.80;99.90;;;;;;5032195;28;20041;-67
2022/05/16 04:27:43;;;;;;;6.93;2.65;;;13.90;99.90;;;;;;5032663;28;20505;-67
2022/05/16 04:30:10;;;;;;;8.75;2.70;;;13.80;99.90;;;;;;5032159;28;20045;-68
2022/05/16 04:32:36;;;;;;;7.57;2.33;;;13.80;99.90;;;;;;5032043;28;20382;-68
2022/05/16 04:35:02;;;;;;;7.50;2.55;;;13.80;99.90;;;;;;5031698;28;20096;-68
2022/05/16 04:37:32;;;;;;;8.18;2.55;;;13.80;99.90;;;;;;5015570;28;20076;-67
2022/05/16 04:39:59;;;;;;;5.10;2.75;;;13.70;99.90;;;;;;5032058;28;20045;-67
2022/05/16 04:42:43;;;;;;;5.88;2.38;;;13.70;99.90;;;;;;5032252;28;20049;-68
2022/05/16 04:45:25;;;;;;;6.15;2.75;;;13.70;99.90;;;;;;5031906;28;20041;-68
2022/05/16 04:47:53;;;;;;;7.82;2.65;;;13.70;99.90;;;;;;5015560;28;20120;-68
2022/05/16 04:50:24;;;;;;;6.78;2.78;;;13.70;99.90;;;;;;5032204;28;20045;-68
2022/05/16 04:52:50;;;;;;;15.20;2.60;;;13.80;99.90;;;;;;5032082;28;20071;-68
2022/05/16 04:55:16;;;;;;;7.72;2.40;;;13.70;99.90;;;;;;5031854;28;20587;-68
2022/05/16 04:57:42;;;;;;;9.13;2.45;;;13.70;99.90;;;;;;5031835;28;20047;-68
2022/05/16 05:00:09;;;;;;;6.30;2.65;;;13.80;99.90;;;;;;5032117;28;20041;-68
2022/05/16 05:02:35;;;;;;;7.32;3.03;;;13.70;99.90;;;;;;5031750;28;20045;-68
2022/05/16 05:05:00;;;;;;;6.35;2.50;;;13.80;99.90;;;;;;5015255;28;20087;-68
2022/05/16 05:07:26;;;;;;;11.35;2.85;;;13.80;99.90;;;;;;5031738;28;20037;-68
2022/05/16 05:15:20;;;;;;;9.05;2.35;;;14.00;99.90;;;;;;5031940;28;20045;-68
2022/05/16 05:17:46;;;;;;;7.13;2.55;;;14.00;99.90;;;;;;5031609;28;20489;-68
2022/05/16 05:20:13;;;;;;;9.50;2.58;;;14.10;99.90;;;;;;5031637;28;20049;-68
2022/05/16 05:22:43;;;;;;;7.32;2.95;;;14.10;99.90;;;;;;5015269;28;20516;-68
2022/05/16 05:25:11;;;;;;;9.07;2.40;;;14.20;99.90;;;;;;5031432;28;20041;-68
2022/05/16 05:27:39;;;;;;;9.10;3.03;;;14.20;99.90;;;;;;5031523;28;20563;-68
2022/05/16 05:30:06;;;;;;;10.63;2.90;;;14.20;99.90;;;;;;5031517;28;20038;-68
2022/05/16 05:32:31;;;;;;;8.27;2.30;;;14.20;99.90;;;;;;5031626;28;20069;-68
2022/05/16 05:34:57;;;;;;;7.90;2.30;;;14.20;99.90;;;;;;5015148;28;20379;-68
2022/05/16 05:37:22;;;;;;;6.45;2.53;;;14.20;99.90;;;;;;5031360;28;20445;-68
2022/05/16 05:39:48;;;;;;;6.28;2.42;;;14.30;99.90;;;;;;5031714;28;20048;-70
2022/05/16 05:42:14;;;;;;;7.05;2.85;;;14.30;99.90;;;;;;5031480;28;20046;-69
2022/05/16 05:44:39;;;;;;;7.63;2.30;;;14.30;99.90;;;;;;5031375;28;20042;-69
2022/05/16 05:47:05;;;;;;;5.90;2.58;;;14.40;99.90;;;;;;5034246;28;20133;-69
2022/05/16 05:49:31;;;;;;;8.68;2.55;;;14.50;99.90;;;;;;5035419;28;20095;-70
2022/05/16 05:51:58;;;;;;;8.05;2.40;;;14.60;99.90;;;;;;5018460;28;20405;-69
2022/05/16 05:54:23;;;;;;;7.50;2.70;;;14.60;99.90;;;;;;5034924;28;20077;-69
2022/05/16 05:56:49;;;;;;;6.30;2.45;;;14.70;99.90;;;;;;5034986;28;20079;-69
2022/05/16 05:59:14;;;;;;;8.32;2.30;;;14.80;99.90;;;;;;5034904;28;20052;-69
2022/05/16 06:01:40;;;;;;;9.70;2.60;;;14.90;99.90;;;;;;5034820;28;20099;-69
2022/05/16 06:04:05;;;;;;;6.43;2.75;;;15.00;99.90;;;;;;5018300;28;20041;-69
2022/05/16 06:06:31;;;;;;;6.55;2.35;;;15.10;99.90;;;;;;5018334;28;20037;-69
2022/05/16 06:08:56;;;;;;;6.80;2.60;;;15.20;99.90;;;;;;5018341;28;20038;-69
2022/05/16 06:11:27;;;;;;;7.97;2.63;;;15.30;99.90;;;;;;5034654;28;20033;-69
2022/05/16 06:13:54;;;;;;;8.23;2.58;;;15.30;99.90;;;;;;5034696;28;20455;-69
2022/05/16 06:16:20;;;;;;;9.93;2.67;;;15.30;99.90;;;;;;5018170;28;20413;-69
2022/05/16 06:18:45;;;;;;;8.40;2.58;;;15.40;99.90;;;;;;5034580;28;20046;-69
2022/05/16 06:21:11;;;;;;;11.52;2.92;;;15.50;99.90;;;;;;5018033;28;20044;-69
2022/05/16 06:23:36;;;;;;;9.23;2.60;;;15.60;99.90;;;;;;5034411;28;20037;-69
2022/05/16 06:26:02;;;;;;;7.47;2.88;;;15.70;99.90;;;;;;5034429;28;20037;-69
2022/05/16 06:28:29;;;;;;;8.23;2.50;;;15.80;99.90;;;;;;5017951;28;20529;-69
2022/05/16 06:30:56;;;;;;;7.97;2.83;;;15.90;99.90;;;;;;5035776;28;20050;-69
2022/05/16 06:33:25;;;;;;;8.18;2.63;;;16.00;99.90;;;;;;5034303;28;20120;-69
2022/05/16 06:35:52;;;;;;;6.82;2.38;;;16.10;99.90;;;;;;5034254;28;20049;-69
2022/05/16 06:38:25;;;;;;;7.93;2.45;;;16.20;99.90;;;;;;5034224;28;20049;-69
2022/05/16 06:40:51;;;;;;;9.65;2.72;;;16.20;99.90;;;;;;5017651;28;20045;-70
2022/05/16 06:43:19;;;;;;;11.35;2.50;;;16.30;99.90;;;;;;5033949;28;20048;-69
2022/05/16 06:45:44;;;;;;;8.05;2.65;;;16.40;99.90;;;;;;5034054;28;20048;-69
2022/05/16 06:48:10;;;;;;;9.13;3.10;;;16.50;99.90;;;;;;5034044;28;20033;-69
2022/05/16 06:50:37;;;;;;;7.70;2.42;;;16.50;99.90;;;;;;5033960;28;20034;-69
2022/05/16 06:53:03;;;;;;;8.73;2.70;;;16.60;99.90;;;;;;5033911;28;20061;-69
2022/05/16 06:55:30;;;;;;;10.00;2.75;;;16.70;99.90;;;;;;5034232;28;20087;-69
2022/05/16 06:57:56;;;;;;;8.25;2.78;;;16.80;99.90;;;;;;5033495;28;20095;-69
2022/05/16 07:00:21;;;;;;;8.80;2.50;;;16.90;99.90;;;;;;5033769;28;20041;-69
2022/05/16 07:02:47;;;;;;;8.55;2.28;;;16.90;99.90;;;;;;5033682;28;20092;-69
2022/05/16 07:05:13;;;;;;;9.20;2.70;;;17.10;99.90;;;;;;5033650;28;20042;-70
2022/05/16 07:07:38;;;;;;;10.93;2.88;;;17.10;99.90;;;;;;5033926;28;20124;-70
2022/05/16 07:10:05;;;;;;;9.70;3.25;;;17.20;99.90;;;;;;5033652;28;20401;-69
2022/05/16 07:12:31;;;;;;;10.18;2.67;;;17.40;99.90;;;;;;5033517;28;20037;-70
2022/05/16 07:14:57;;;;;;;8.55;2.65;;;17.50;99.90;;;;;;5017283;28;20033;-69
2022/05/16 07:17:22;;;;;;;7.03;2.55;;;17.60;99.90;;;;;;5034161;28;20048;-70
2022/05/16 07:19:49;;;;;;;9.65;3.00;;;17.70;99.90;;;;;;5033418;28;20456;-70
2022/05/16 07:22:22;;;;;;;6.95;2.33;;;17.90;99.90;;;;;;5033377;28;20557;-69
2022/05/16 07:24:48;;;;;;;;;;;18.00;99.90;;;;;;5034256;28;20111;-69
2022/05/16 07:29:57;;;;;;;9.30;2.25;;;18.20;99.90;;;;;;5033632;28;20049;-70
2022/05/16 07:32:31;;;;;;;13.45;2.92;;;18.30;99.90;;;;;;5033171;28;20537;-70
2022/05/16 07:35:01;;;;;;;8.38;2.65;;;18.50;99.90;;;;;;5033206;28;20497;-70
2022/05/16 07:37:26;;;;;;;8.57;2.50;;;18.60;99.90;;;;;;5016588;28;20042;-69
2022/05/16 07:39:52;;;;;;;12.68;2.88;;;18.70;99.90;;;;;;5033045;28;20099;-69
2022/05/16 07:42:17;;;;;;;7.43;2.65;;;18.80;99.90;;;;;;5032608;28;20099;-69
2022/05/16 07:44:43;;;;;;;9.02;2.80;;;18.90;99.90;;;;;;5032804;28;20045;-69
2022/05/16 07:47:08;;;;;;;9.57;2.95;;;19.00;99.20;;;;;;5032899;28;20041;-69
2022/05/16 07:49:34;;;;;;;6.95;2.47;;;19.20;99.80;;;;;;5032890;28;20041;-69
2022/05/16 07:51:59;;;;;;;9.70;2.30;;;19.30;99.30;;;;;;5032789;28;20037;-69
2022/05/16 07:54:25;;;;;;;5.93;2.10;;;19.50;98.90;;;;;;5032777;28;20057;-70
2022/05/16 07:56:51;;;;;;;10.55;2.75;;;19.70;98.40;;;;;;5032747;28;20044;-69
2022/05/16 07:59:16;;;;;;;9.43;2.80;;;19.80;98.10;;;;;;5032704;28;20048;-69
2022/05/16 08:01:42;;;;;;;6.72;2.65;;;20.00;97.30;;;;;;5032848;28;20067;-69
2022/05/16 08:04:08;;;;;;;7.65;2.03;;;20.20;96.70;;;;;;5032772;28;20527;-69
2022/05/16 08:06:35;;;;;;;8.48;2.47;;;20.40;95.30;;;;;;5032804;28;20037;-69
2022/05/16 08:11:46;;;;;;;8.68;2.20;;;20.70;93.10;;;;;;5032418;28;20413;-69
2022/05/16 08:14:11;;;;;;;10.85;2.58;;;20.90;92.80;;;;;;5032682;28;20048;-69
2022/05/16 08:16:37;;;;;;;9.05;2.53;;;21.00;91.40;;;;;;5032667;28;20485;-69
2022/05/16 08:19:03;;;;;;;10.80;2.60;;;21.30;89.90;;;;;;5032322;28;20037;-69
2022/05/16 08:21:29;;;;;;;9.82;2.45;;;21.40;87.20;;;;;;5032280;28;20041;-69
2022/05/16 08:23:55;;;;;;;6.13;2.63;;;21.50;89.60;;;;;;5032275;28;20056;-69
2022/05/16 08:26:21;;;;;;;8.23;2.53;;;21.70;89.20;;;;;;5015769;28;20049;-69
2022/05/16 08:28:46;;;;;;;10.02;2.72;;;21.80;85.20;;;;;;5032444;28;20045;-69
2022/05/16 08:31:12;;;;;;;8.50;2.33;;;22.00;86.10;;;;;;5032153;28;20045;-69
2022/05/16 08:33:39;;;;;;;12.23;2.60;;;22.20;82.70;;;;;;5032341;28;20049;-69
2022/05/16 08:41:53;;;;;;;10.63;2.80;;;22.70;77.20;;;;;;5032246;28;20501;-70
2022/05/16 08:44:21;;;;;;;11.73;3.00;;;22.90;77.10;;;;;;5031987;28;20050;-70
2022/05/16 08:47:19;;;;;;;14.43;2.50;;;23.10;75.80;;;;;;5032262;28;20048;-70
2022/05/16 08:49:57;;;;;;;12.13;3.10;;;23.20;69.40;;;;;;5032004;28;20042;-69
2022/05/16 08:52:35;;;;;;;9.60;2.47;;;23.20;67.80;;;;;;5031812;28;20497;-70
2022/05/16 08:55:24;;;;;;;12.52;2.55;;;23.30;66.60;;;;;;5031976;28;20045;-70
2022/05/16 08:58:00;;;;;;;9.75;2.28;;;23.30;66.40;;;;;;5018230;28;20134;-70
2022/05/16 09:00:53;;;;;;;9.57;2.67;;;23.50;66.40;;;;;;5031920;28;20077;-70
2022/05/16 09:03:24;;;;;;;8.57;2.60;;;23.70;65.00;;;;;;5031986;28;20498;-70
2022/05/16 09:05:57;;;;;;;5.78;2.30;;;24.00;63.70;;;;;;5031752;28;20073;-70
2022/05/16 09:08:39;;;;;;;7.63;2.55;;;24.20;63.30;;;;;;5031804;28;20453;-70
2022/05/16 09:11:13;;;;;;;7.40;2.58;;;24.50;61.00;;;;;;5032028;28;20045;-70
2022/05/16 09:13:51;;;;;;;10.50;2.30;;;24.60;59.90;;;;;;5031655;28;20041;-70
2022/05/16 09:16:37;;;;;;;8.95;2.72;;;24.70;60.90;;;;;;5031692;28;20057;-71
2022/05/16 09:19:02;;;;;;;11.65;2.45;;;24.70;60.50;;;;;;5015465;28;20432;-69
2022/05/16 09:21:55;;;;;;;8.07;2.25;;;24.70;62.00;;;;;;5035554;28;20053;-71
2022/05/16 09:24:30;;;;;;;11.45;2.60;;;24.90;62.10;;;;;;5035816;28;20502;-70
2022/05/16 09:27:01;;;;;;;8.45;2.53;;;25.00;61.00;;;;;;5036861;28;20120;-70
2022/05/16 09:29:31;;;;;;;12.57;2.60;;;25.10;58.60;;;;;;5035574;28;20042;-71
2022/05/16 09:32:27;;;;;;;8.25;2.40;;;25.20;57.40;;;;;;5035736;28;20467;-70
2022/05/16 09:34:53;;;;;;;10.07;2.60;;;25.30;57.40;;;;;;5035668;28;20045;-70
2022/05/16 09:37:19;;;;;;;11.73;3.00;;;25.20;59.40;;;;;;5035360;28;20413;-70
2022/05/16 09:39:44;;;;;;;12.05;2.78;;;25.10;57.30;;;;;;5035308;28;20037;-70
2022/05/16 09:42:15;;;;;;;9.68;2.83;;;25.10;57.60;;;;;;5035352;28;20053;-70
2022/05/16 09:44:46;;;;;;;6.63;2.45;;;25.00;57.20;;;;;;5018696;28;20042;-70
2022/05/16 09:47:22;;;;;;;8.37;2.57;;;25.00;58.90;;;;;;5035217;28;20041;-70
2022/05/16 09:50:03;;;;;;;10.32;2.47;;;25.20;60.10;;;;;;5035198;28;20045;-70
2022/05/16 09:52:45;;;;;;;12.63;2.80;;;25.50;57.10;;;;;;5035073;28;20037;-70
2022/05/16 09:55:14;;;;;;;;;;;25.70;56.00;;;;;;5035787;28;20060;-70
2022/05/16 09:57:48;;;;;;;12.02;2.70;;;25.80;58.40;;;;;;5034985;28;19956;-70
2022/05/16 10:00:17;;;;;;;10.43;2.92;;;26.00;56.10;;;;;;5035006;28;20077;-70
2022/05/16 10:02:43;;;;;;;9.93;2.58;;;26.10;55.20;;;;;;5034869;28;20046;-70
2022/05/16 10:05:31;;;;;;;11.05;2.72;;;26.30;54.40;;;;;;5034790;28;20041;-70
2022/05/16 10:08:10;;;;;;;13.13;3.55;;;26.30;53.80;;;;;;5034837;28;20421;-70
2022/05/16 10:10:38;;;;;;;10.00;2.63;;;26.30;55.00;;;;;;5018356;28;20091;-70
2022/05/16 10:13:05;;;;;;;5.35;2.17;;;26.50;53.80;;;;;;5018157;28;20080;-70
2022/05/16 10:15:32;;;;;;;14.45;2.90;;;26.60;53.10;;;;;;5034897;28;20045;-70
2022/05/16 10:18:00;;;;;;;10.45;2.85;;;26.80;53.30;;;;;;5034631;28;20049;-70
2022/05/16 10:20:31;;;;;;;12.13;2.75;;;27.10;53.40;;;;;;5034619;28;20073;-70
2022/05/16 10:23:02;;;;;;;12.13;2.58;;;27.20;52.40;;;;;;5034555;28;20452;-70
2022/05/16 10:25:33;;;;;;;11.02;2.67;;;27.30;51.80;;;;;;5034574;28;20037;-70
2022/05/16 10:28:03;;;;;;;9.05;2.80;;;27.40;51.30;;;;;;5018166;28;20501;-70
2022/05/16 10:30:31;;;;;;;7.63;2.50;;;27.50;51.00;;;;;;5034361;28;20073;-71
2022/05/16 10:35:51;;;;;;;12.18;3.20;;;27.30;51.40;;;;;;5034371;28;20122;-71
2022/05/16 10:38:29;;;;;;;11.40;2.70;;;27.10;51.70;;;;;;5018014;28;20128;-71
2022/05/16 10:40:58;;;;;;;12.68;2.60;;;26.90;51.90;;;;;;5036032;28;20042;-71
2022/05/16 10:44:01;;;;;;;11.18;2.63;;;26.70;52.60;;;;;;5017470;28;20091;-71
2022/05/16 10:46:32;;;;;;;10.43;2.85;;;26.40;53.30;;;;;;5069939;22;20415;-75
2022/05/16 10:49:04;;;;;;;11.38;2.95;;;26.20;53.70;;;;;;5054085;28;20037;-74
2022/05/16 10:51:52;;;;;;;8.43;2.45;;;26.00;54.30;;;;;;5053886;28;20029;-74
2022/05/16 10:54:21;;;;;;;12.45;2.88;;;25.80;54.10;;;;;;5054209;28;20110;-75
2022/05/16 10:57:00;;;;;;;7.40;2.50;;;25.60;55.30;;;;;;5053753;28;20559;-74
2022/05/16 10:59:38;;;;;;;15.30;3.13;;;25.40;55.90;;;;;;5053846;28;20045;-74
2022/05/16 11:02:41;;;;;;;7.70;2.70;;;25.30;57.60;;;;;;5053762;28;20036;-75
2022/05/16 11:05:44;;;;;;;12.07;3.15;;;25.10;57.60;;;;;;5053668;28;20045;-74
2022/05/16 11:08:22;;;;;;;;;;;24.90;60.50;;;;;;5054347;28;20485;-74
2022/05/16 11:10:58;;;;;;;7.10;2.75;;;24.70;67.60;;;;;;5053594;28;20348;-75
2022/05/16 11:13:36;;;;;;;15.73;3.50;;;24.50;94.70;;;;;;5053575;28;20447;-75
2022/05/16 11:16:10;;;;;;;13.90;3.22;;;24.30;98.40;;;;;;5036909;28;20037;-74
2022/05/16 11:18:53;;;;;;;16.85;3.75;;;24.10;93.80;;;;;;5036873;28;20052;-74
2022/05/16 11:21:48;;;;;;;11.68;3.30;;;23.90;98.90;;;;;;5053717;28;20062;-75
2022/05/16 11:24:30;;;;;;;17.45;5.80;;;23.70;99.90;;;;;;5037111;28;20547;-74
2022/05/16 11:27:12;;;;;;;20.33;5.60;;;23.50;99.90;;;;;;5053281;28;20508;-74
2022/05/16 11:29:41;;;;;;;;;;;23.30;99.90;;;;;;5053956;28;20041;-74
2022/05/16 11:32:18;;;;;;;18.80;4.65;;;23.20;99.90;;;;;;5053178;28;19923;-74
2022/05/16 11:35:06;;;;;;;12.73;4.05;;;23.10;99.90;;;;;;5053156;28;20044;-74
2022/05/16 11:38:07;;;;;;;14.98;4.03;;;23.10;99.90;;;;;;5053599;28;20048;-74
2022/05/16 11:40:46;;;;;;;12.32;4.10;;;23.10;99.90;;;;;;5019244;28;20060;-74
2022/05/16 11:43:26;;;;;;;14.43;4.22;;;23.10;99.90;;;;;;5035402;28;20168;-74
2022/05/16 11:46:23;;;;;;;12.50;3.97;;;23.20;99.90;;;;;;5052870;28;20418;-74
2022/05/16 11:49:09;;;;;;;14.00;4.28;;;23.20;99.90;;;;;;5053104;28;20049;-73
2022/05/16 11:51:55;;;;;;;15.50;4.30;;;23.20;99.90;;;;;;5036253;28;20080;-74
2022/05/16 11:54:26;;;;;;;13.63;4.28;;;23.30;99.90;;;;;;5053000;28;20166;-73
2022/05/16 12:02:30;;;;;;;17.75;5.25;;;23.50;99.90;;;;;;5052684;28;20076;-74
2022/05/16 12:05:07;;;;;;;12.77;3.97;;;23.50;99.90;;;;;;5052736;28;20037;-74
2022/05/16 12:07:35;;;;;;;12.40;3.78;;;23.60;99.90;;;;;;5052815;28;20078;-74
2022/05/16 12:10:10;;;;;;;13.15;4.38;;;23.50;99.90;;;;;;5036103;28;20108;-74
2022/05/16 12:12:40;;;;;;;9.38;3.42;;;23.50;99.90;;;;;;5052407;28;20420;-74
2022/05/16 12:15:24;;;;;;;11.10;3.60;;;23.40;99.90;;;;;;5035547;28;20137;-73
2022/05/16 12:17:56;;;;;;;10.18;3.33;;;23.30;99.90;;;;;;5052600;28;20048;-73
2022/05/16 12:21:03;;;;;;;11.23;3.95;;;23.30;99.90;;;;;;5052596;28;20076;-74
2022/05/16 12:23:49;;;;;;;11.35;3.10;;;23.20;99.90;;;;;;4975888;28;20470;-74
2022/05/16 12:26:39;;;;;;;6.93;2.72;;;23.20;99.90;;;;;;5049712;28;20085;-74
2022/05/16 12:29:08;;;;;;;8.45;2.78;;;23.30;99.90;;;;;;5052197;28;20041;-73
2022/05/16 12:32:02;;;;;;;10.13;3.00;;;23.40;99.90;;;;;;5052167;28;20386;-75
2022/05/16 12:34:31;;;;;;;11.73;2.65;;;23.50;99.90;;;;;;5032821;28;20492;-75
2022/05/16 12:36:59;;;;;;;7.57;2.80;;;23.60;99.90;;;;;;5035413;28;20595;-74
2022/05/16 12:39:48;;;;;;;6.53;2.67;;;23.80;99.90;;;;;;5052342;28;20036;-74
2022/05/16 12:42:23;;;;;;;10.00;2.50;;;24.20;99.90;;;;;;5052076;28;20076;-75
2022/05/16 12:45:12;;;;;;;9.52;3.17;;;24.50;99.90;;;;;;5052040;28;20037;-76
2022/05/16 12:47:49;;;;;;;8.52;2.97;;;24.80;98.50;;;;;;5052233;28;20045;-76
2022/05/16 12:50:36;;;;;;;9.68;2.90;;;24.90;97.40;;;;;;5051988;28;20037;-76
2022/05/16 12:53:33;;;;;;;11.00;3.05;;;24.90;95.30;;;;;;5051866;28;20036;-76
2022/05/16 12:56:09;;;;;;;7.10;3.28;;;24.90;94.70;;;;;;5051439;28;20106;-75
2022/05/16 12:58:50;;;;;;;8.02;3.30;;;24.90;97.40;;;;;;5051786;28;20124;-75
2022/05/16 13:01:25;;;;;;;7.60;3.33;;;25.10;96.40;;;;;;5035246;28;20045;-75
2022/05/16 13:04:08;;;;;;;10.18;3.53;;;25.10;95.90;;;;;;5051888;28;20041;-75
2022/05/16 13:06:45;;;;;;;;;;;25.10;96.10;;;;;;5052213;28;20174;-75
2022/05/16 13:09:11;;;;;;;8.55;2.63;;;25.00;94.00;;;;;;5051742;28;19917;-75
2022/05/16 13:11:51;;;;;;;11.10;2.90;;;24.90;96.50;;;;;;5051635;28;20047;-75
2022/05/16 13:14:29;;;;;;;7.57;2.90;;;24.90;94.60;;;;;;5035059;28;20037;-76
2022/05/16 13:17:00;;;;;;;8.07;2.53;;;24.90;96.10;;;;;;5035317;28;20366;-75
2022/05/16 13:19:32;;;;;;;10.48;3.05;;;24.80;94.40;;;;;;5051883;28;20041;-76
2022/05/16 13:22:06;;;;;;;10.50;2.93;;;24.70;94.40;;;;;;5051862;28;20120;-76
2022/05/16 13:24:33;;;;;;;10.55;4.00;;;24.60;93.90;;;;;;5051716;28;20147;-75
2022/05/16 13:29:46;;;;;;;8.27;3.78;;;24.50;94.30;;;;;;5051430;28;20513;-75
2022/05/16 13:32:16;;;;;;;8.43;3.97;;;24.50;94.90;;;;;;5051784;28;20037;-75
2022/05/16 13:34:51;;;;;;;7.53;3.80;;;24.50;96.30;;;;;;5051763;28;20048;-76
2022/05/16 13:37:20;;;;;;;9.98;4.35;;;24.50;97.10;;;;;;5051387;28;20053;-76
2022/05/16 13:39:50;;;;;;;10.43;4.60;;;24.50;97.20;;;;;;5051412;28;20049;-76